Time;durP1;ratioP1;P1;durP2;ratioP2;P2;SDS_P1;SDS_P2;PMS_P1;PMS_P2;Temp;Humidity;BMP_temperature;BMP_pressure;BME280_temperature;BME280_humidity;BME280_pressure;Samples;Min_cycle;Max_cycle;Signal;HPM_P1;HPM_P2
2023/05/23 00:01:57;;;;;;;35.60;31.90;;;19.20;43.80;;;;;;5070371;28;20186;-76
2023/05/23 00:04:25;;;;;;;35.30;31.90;;;19.20;43.90;;;;;;5055043;28;20751;-76
2023/05/23 00:06:52;;;;;;;37.87;34.20;;;19.20;44.00;;;;;;5055311;28;20417;-75
2023/05/23 00:09:17;;;;;;;40.30;36.33;;;19.10;43.90;;;;;;5072428;28;20420;-76
2023/05/23 00:11:44;;;;;;;37.50;34.20;;;19.20;44.30;;;;;;5054510;28;20725;-76
2023/05/23 00:14:14;;;;;;;36.30;32.97;;;19.10;44.50;;;;;;5053785;28;20214;-76
2023/05/23 00:16:41;;;;;;;38.83;35.03;;;19.10;45.00;;;;;;5072559;28;20888;-76
2023/05/23 00:19:07;;;;;;;37.37;33.87;;;19.00;44.90;;;;;;5073310;28;20413;-76
2023/05/23 00:21:33;;;;;;;37.30;33.60;;;19.00;45.10;;;;;;5071865;28;20410;-75
2023/05/23 00:23:59;;;;;;;41.37;37.00;;;19.00;45.30;;;;;;5071890;28;20491;-76
2023/05/23 00:26:24;;;;;;;38.63;35.07;;;19.00;45.40;;;;;;5072040;28;20202;-76
2023/05/23 00:28:50;;;;;;;39.67;36.03;;;19.00;45.40;;;;;;5071891;28;20186;-75
2023/05/23 00:31:16;;;;;;;39.77;36.07;;;18.90;45.90;;;;;;5054264;28;20191;-76
2023/05/23 00:33:42;;;;;;;40.87;37.27;;;18.90;46.70;;;;;;5071742;28;20642;-76
2023/05/23 00:36:07;;;;;;;41.13;37.20;;;18.90;46.50;;;;;;5072869;28;20490;-76
2023/05/23 00:38:33;;;;;;;41.20;37.27;;;18.90;46.40;;;;;;5073174;28;20536;-76
2023/05/23 00:40:59;;;;;;;38.57;34.57;;;18.90;46.50;;;;;;5055726;28;20786;-75
2023/05/23 00:43:25;;;;;;;42.10;38.00;;;18.90;46.60;;;;;;5072393;28;20733;-76
2023/05/23 00:45:50;;;;;;;43.33;38.83;;;18.90;46.50;;;;;;5071968;28;20195;-76
2023/05/23 00:48:16;;;;;;;42.30;38.50;;;18.90;46.70;;;;;;5072526;28;20237;-76
2023/05/23 00:50:42;;;;;;;45.97;41.40;;;18.90;46.70;;;;;;5054284;28;20233;-74
2023/05/23 00:53:08;;;;;;;44.80;40.17;;;18.90;46.70;;;;;;5053358;28;20453;-75
2023/05/23 00:55:33;;;;;;;45.73;41.13;;;18.90;46.60;;;;;;5072943;28;20650;-76
2023/05/23 00:57:59;;;;;;;47.60;43.00;;;19.00;46.70;;;;;;5071961;28;20171;-76
2023/05/23 01:00:25;;;;;;;47.53;43.00;;;18.90;46.70;;;;;;5073359;28;20174;-76
2023/05/23 01:02:52;;;;;;;46.30;41.13;;;18.90;47.20;;;;;;5071295;28;20195;-76
2023/05/23 01:05:18;;;;;;;44.13;40.00;;;18.90;47.30;;;;;;5054046;28;20502;-76
2023/05/23 01:07:45;;;;;;;46.60;42.10;;;18.90;47.20;;;;;;5054842;28;20453;-76
2023/05/23 01:10:13;;;;;;;47.17;42.60;;;18.90;47.20;;;;;;5073337;28;20971;-75
2023/05/23 01:13:08;;;;;;;49.50;44.47;;;18.90;47.00;;;;;;5052166;28;20421;-75
2023/05/23 01:15:41;;;;;;;48.07;43.10;;;18.90;46.90;;;;;;5051978;28;20460;-76
2023/05/23 01:18:11;;;;;;;48.40;43.80;;;18.90;47.00;;;;;;5053813;28;20506;-73
2023/05/23 01:20:52;;;;;;;49.93;45.00;;;18.90;47.10;;;;;;5072543;28;20414;-76
2023/05/23 01:23:23;;;;;;;53.13;48.00;;;18.90;47.20;;;;;;5072699;28;20773;-76
2023/05/23 01:26:25;;;;;;;53.87;48.20;;;18.90;47.10;;;;;;5073688;28;20459;-75
2023/05/23 01:28:55;;;;;;;50.73;45.70;;;18.80;47.40;;;;;;5070617;28;20420;-76
2023/05/23 01:31:23;;;;;;;51.10;46.17;;;18.80;48.00;;;;;;5054376;28;20421;-75
2023/05/23 01:33:52;;;;;;;54.33;48.47;;;18.70;48.10;;;;;;5071147;28;20468;-76
2023/05/23 01:36:19;;;;;;;52.70;47.40;;;18.70;48.20;;;;;;5070729;28;20943;-75
2023/05/23 01:38:44;;;;;;;51.47;46.70;;;18.70;48.30;;;;;;5072473;28;21281;-76
2023/05/23 01:41:10;;;;;;;51.73;46.57;;;18.70;48.40;;;;;;5054758;28;20425;-75
2023/05/23 01:43:35;;;;;;;52.10;46.90;;;18.70;48.30;;;;;;5071868;28;20175;-75
2023/05/23 01:46:03;;;;;;;54.33;48.57;;;18.70;48.20;;;;;;5072271;28;20571;-76
2023/05/23 01:48:30;;;;;;;55.47;49.87;;;18.70;48.20;;;;;;5072329;28;20508;-76
2023/05/23 01:50:56;;;;;;;56.13;50.27;;;18.60;48.50;;;;;;5072930;28;20444;-77
2023/05/23 01:53:23;;;;;;;57.33;51.53;;;18.60;48.60;;;;;;5071686;28;20457;-76
2023/05/23 01:55:50;;;;;;;56.93;51.30;;;18.60;48.60;;;;;;5070436;28;20452;-76
2023/05/23 01:58:15;;;;;;;55.43;49.73;;;18.60;49.10;;;;;;5073665;28;20397;-76
2023/05/23 02:00:41;;;;;;;58.23;51.93;;;18.60;48.80;;;;;;5071358;28;20540;-77
2023/05/23 02:03:07;;;;;;;58.27;52.70;;;18.60;48.60;;;;;;5072897;28;20183;-74
2023/05/23 02:05:32;;;;;;;57.97;51.83;;;18.60;48.70;;;;;;5073271;28;20191;-76
2023/05/23 02:07:58;;;;;;;59.77;53.17;;;18.50;48.80;;;;;;5057237;28;20191;-75
2023/05/23 02:10:23;;;;;;;57.50;51.60;;;18.60;48.60;;;;;;5075845;28;20192;-76
2023/05/23 02:12:49;;;;;;;59.77;53.73;;;18.50;48.90;;;;;;5057230;28;20723;-75
2023/05/23 02:15:16;;;;;;;60.43;54.17;;;18.50;49.10;;;;;;5075368;28;20217;-75
2023/05/23 02:17:41;;;;;;;57.83;52.13;;;18.50;49.10;;;;;;5057620;28;20225;-77
2023/05/23 02:20:08;;;;;;;61.57;55.20;;;18.50;49.10;;;;;;5058634;28;20418;-75
2023/05/23 02:22:34;;;;;;;61.77;52.87;;;18.50;49.10;;;;;;5055760;28;20273;-75
2023/05/23 02:25:00;;;;;;;60.23;54.10;;;18.50;49.10;;;;;;5072925;28;20462;-76
2023/05/23 02:27:26;;;;;;;60.47;54.40;;;18.50;49.10;;;;;;5074873;28;20171;-76
2023/05/23 02:29:51;;;;;;;58.73;52.93;;;18.50;49.10;;;;;;5073321;28;20174;-76
2023/05/23 02:32:17;;;;;;;59.40;53.60;;;18.50;48.80;;;;;;5071652;28;20171;-74
2023/05/23 02:34:45;;;;;;;61.70;55.90;;;18.50;48.80;;;;;;5073039;28;20290;-76
2023/05/23 02:37:12;;;;;;;58.63;52.60;;;18.50;49.70;;;;;;5055645;28;20269;-77
2023/05/23 02:39:38;;;;;;;61.63;55.67;;;18.50;49.10;;;;;;5055109;28;20417;-76
2023/05/23 02:42:03;;;;;;;63.83;57.40;;;18.40;49.00;;;;;;5075662;28;20406;-76
2023/05/23 02:44:29;;;;;;;61.07;54.57;;;18.40;49.00;;;;;;5074540;28;20192;-76
2023/05/23 02:46:54;;;;;;;57.80;52.00;;;18.40;49.00;;;;;;5075054;28;20183;-77
2023/05/23 02:49:20;;;;;;;60.30;54.60;;;18.40;49.00;;;;;;5075554;28;20203;-76
2023/05/23 02:51:45;;;;;;;61.50;55.30;;;18.40;49.00;;;;;;5072265;28;20191;-75
2023/05/23 02:54:11;;;;;;;60.00;53.77;;;18.40;49.00;;;;;;5075052;28;20256;-77
2023/05/23 02:56:36;;;;;;;58.77;52.60;;;18.40;49.00;;;;;;5073889;28;20543;-76
2023/05/23 02:59:02;;;;;;;60.50;55.00;;;18.40;49.00;;;;;;5055932;28;20179;-75
2023/05/23 03:01:28;;;;;;;60.63;54.57;;;18.40;49.00;;;;;;5072319;28;20657;-75
2023/05/23 03:03:53;;;;;;;59.17;53.57;;;18.40;49.00;;;;;;5074777;28;20589;-76
2023/05/23 03:06:21;;;;;;;61.23;55.27;;;18.40;49.00;;;;;;5073147;28;20186;-76
2023/05/23 03:08:46;;;;;;;63.73;57.47;;;18.30;48.90;;;;;;5074560;28;20179;-76
2023/05/23 03:11:12;;;;;;;60.23;54.20;;;18.40;49.00;;;;;;5075064;28;20420;-74
2023/05/23 03:13:37;;;;;;;62.43;56.40;;;18.30;48.90;;;;;;5055787;28;20609;-76
2023/05/23 03:16:03;;;;;;;59.57;53.97;;;18.30;48.90;;;;;;5072530;28;20179;-75
2023/05/23 03:18:28;;;;;;;61.97;55.77;;;18.30;48.90;;;;;;5055749;28;20262;-75
2023/05/23 03:20:54;;;;;;;59.87;54.03;;;18.30;48.90;;;;;;5055647;28;20630;-75
2023/05/23 03:23:20;;;;;;;60.83;55.07;;;18.30;48.90;;;;;;5057656;28;20179;-76
2023/05/23 03:25:45;;;;;;;57.63;52.17;;;18.30;48.90;;;;;;5071776;28;20199;-76
2023/05/23 03:28:13;;;;;;;57.73;52.47;;;18.30;48.90;;;;;;5072543;28;20167;-75
2023/05/23 03:30:39;;;;;;;57.93;52.73;;;18.30;48.90;;;;;;5073177;28;20178;-76
2023/05/23 03:33:06;;;;;;;60.30;54.33;;;18.30;48.90;;;;;;5053255;28;20457;-75
2023/05/23 03:35:31;;;;;;;57.63;52.23;;;18.20;48.80;;;;;;5072306;28;20658;-75
2023/05/23 03:37:57;;;;;;;58.97;53.13;;;18.20;48.80;;;;;;5071310;28;20398;-75
2023/05/23 03:40:22;;;;;;;59.00;53.10;;;18.20;48.80;;;;;;5055167;28;20175;-75
2023/05/23 03:43:04;;;;;;;56.03;51.17;;;18.20;49.20;;;;;;5072130;28;20171;-76
2023/05/23 03:45:30;;;;;;;56.93;51.63;;;18.10;49.90;;;;;;5055981;28;20195;-75
2023/05/23 03:47:56;;;;;;;57.47;52.13;;;18.10;49.60;;;;;;5052411;28;20418;-74
2023/05/23 03:50:21;;;;;;;56.37;50.97;;;18.10;49.40;;;;;;5070547;28;20414;-75
2023/05/23 03:52:47;;;;;;;59.23;53.73;;;18.20;49.10;;;;;;5069932;28;20186;-75
2023/05/23 03:55:12;;;;;;;54.13;49.17;;;18.10;49.70;;;;;;5068867;28;20195;-75
2023/05/23 03:57:38;;;;;;;56.27;51.07;;;18.10;49.70;;;;;;5049114;28;20179;-75
2023/05/23 04:00:11;;;;;;;57.07;51.83;;;18.20;49.50;;;;;;5051182;28;20278;-75
2023/05/23 04:02:39;;;;;;;54.00;49.30;;;18.20;49.20;;;;;;5067673;28;20195;-76
2023/05/23 04:05:05;;;;;;;55.67;50.77;;;18.20;48.80;;;;;;5053591;28;20454;-76
2023/05/23 04:07:33;;;;;;;51.37;46.37;;;18.20;49.10;;;;;;5053212;28;20481;-75
2023/05/23 04:09:59;;;;;;;54.13;48.93;;;18.20;49.00;;;;;;5071682;28;20912;-75
2023/05/23 04:12:26;;;;;;;54.10;49.20;;;18.20;48.80;;;;;;5070981;28;20445;-74
2023/05/23 04:14:51;;;;;;;54.57;49.57;;;18.30;49.60;;;;;;5071938;28;20561;-76
2023/05/23 04:17:17;;;;;;;53.67;48.97;;;18.20;48.80;;;;;;5070046;28;20191;-75
2023/05/23 04:19:43;;;;;;;55.77;50.77;;;18.20;49.00;;;;;;5072301;28;20249;-76
2023/05/23 04:22:09;;;;;;;53.80;48.57;;;18.20;48.80;;;;;;5052185;28;20420;-75
2023/05/23 04:24:34;;;;;;;55.47;50.27;;;18.20;48.80;;;;;;5071212;28;20516;-76
2023/05/23 04:27:00;;;;;;;54.70;49.60;;;18.20;49.10;;;;;;5070182;28;20728;-76
2023/05/23 04:29:26;;;;;;;55.40;50.50;;;18.20;49.20;;;;;;5052433;28;20181;-76
2023/05/23 04:31:53;;;;;;;51.30;46.90;;;18.20;49.40;;;;;;5054358;28;20175;-75
2023/05/23 04:34:21;;;;;;;52.80;48.00;;;18.10;49.30;;;;;;5070627;28;20853;-74
2023/05/23 04:36:47;;;;;;;52.13;47.57;;;18.20;49.10;;;;;;5053636;28;20421;-76
2023/05/23 04:39:12;;;;;;;53.67;48.97;;;18.10;49.20;;;;;;5072637;28;20417;-76
2023/05/23 04:41:38;;;;;;;51.10;46.57;;;18.10;49.20;;;;;;5072960;28;20402;-76
2023/05/23 04:44:04;;;;;;;54.23;49.43;;;18.10;49.20;;;;;;5071189;28;20448;-76
2023/05/23 04:46:30;;;;;;;51.67;46.83;;;18.10;49.30;;;;;;5070972;28;20413;-76
2023/05/23 04:48:57;;;;;;;50.23;45.60;;;18.10;49.40;;;;;;5050099;28;20793;-75
2023/05/23 04:51:23;;;;;;;50.93;46.57;;;18.20;49.20;;;;;;5052162;28;20432;-77
2023/05/23 04:53:50;;;;;;;54.83;49.77;;;18.10;49.20;;;;;;5068854;28;21058;-75
2023/05/23 04:56:16;;;;;;;51.33;46.43;;;18.10;49.10;;;;;;5054688;28;20417;-76
2023/05/23 04:58:44;;;;;;;50.43;46.17;;;18.10;49.20;;;;;;5051792;28;20436;-77
2023/05/23 05:01:10;;;;;;;50.53;46.13;;;18.10;49.10;;;;;;5071030;28;20433;-77
2023/05/23 05:03:36;;;;;;;54.93;50.07;;;18.10;49.70;;;;;;5052998;28;20512;-77
2023/05/23 05:06:02;;;;;;;48.93;44.90;;;18.10;49.80;;;;;;5069732;28;20458;-76
2023/05/23 05:08:27;;;;;;;52.00;47.70;;;18.10;49.70;;;;;;5049084;28;20808;-77
2023/05/23 05:10:54;;;;;;;52.77;48.13;;;18.10;49.70;;;;;;5070720;28;20688;-77
2023/05/23 05:13:19;;;;;;;51.43;47.07;;;18.10;49.70;;;;;;5071084;28;20596;-76
2023/05/23 05:15:45;;;;;;;51.53;47.10;;;18.00;49.90;;;;;;5070966;28;20429;-75
2023/05/23 05:18:11;;;;;;;50.63;46.17;;;18.10;49.80;;;;;;5069733;28;20180;-76
2023/05/23 05:20:36;;;;;;;53.80;49.10;;;18.10;49.60;;;;;;5068178;28;20182;-74
2023/05/23 05:23:02;;;;;;;51.10;47.03;;;18.10;49.70;;;;;;5052891;28;20585;-75
2023/05/23 05:25:30;;;;;;;51.57;47.37;;;18.10;49.80;;;;;;5065072;28;20277;-76
2023/05/23 05:27:57;;;;;;;52.07;47.27;;;18.10;49.40;;;;;;5053060;28;20176;-76
2023/05/23 05:30:23;;;;;;;52.97;48.27;;;18.10;49.50;;;;;;5069126;28;20417;-77
2023/05/23 05:32:48;;;;;;;51.73;47.10;;;18.00;49.40;;;;;;5052327;28;20528;-75
2023/05/23 05:35:14;;;;;;;51.33;47.00;;;18.10;49.60;;;;;;5069693;28;20200;-75
2023/05/23 05:37:40;;;;;;;53.40;48.80;;;18.10;49.50;;;;;;5052795;28;20266;-74
2023/05/23 05:40:07;;;;;;;51.07;46.87;;;18.00;49.70;;;;;;5071675;28;20179;-74
2023/05/23 05:42:33;;;;;;;50.17;46.17;;;18.00;49.70;;;;;;5071852;28;20186;-75
2023/05/23 05:44:58;;;;;;;52.30;47.90;;;18.00;49.70;;;;;;5074473;28;20429;-76
2023/05/23 05:47:23;;;;;;;51.00;46.70;;;18.10;49.80;;;;;;5074196;28;20172;-75
2023/05/23 05:49:49;;;;;;;52.60;47.60;;;18.00;49.40;;;;;;5073906;28;20182;-75
2023/05/23 05:52:14;;;;;;;54.10;49.57;;;18.10;49.50;;;;;;5074408;28;20187;-77
2023/05/23 05:54:40;;;;;;;50.37;46.20;;;18.00;49.30;;;;;;5073048;28;20587;-76
2023/05/23 05:57:05;;;;;;;52.93;48.53;;;18.00;49.50;;;;;;5072395;28;20182;-75
2023/05/23 05:59:31;;;;;;;52.97;48.70;;;18.00;49.40;;;;;;5073321;28;20629;-74
2023/05/23 06:01:56;;;;;;;52.37;48.00;;;18.00;49.50;;;;;;5060111;28;20195;-75
2023/05/23 06:04:22;;;;;;;54.03;49.47;;;18.10;49.30;;;;;;5073036;28;20261;-76
2023/05/23 06:06:48;;;;;;;53.60;49.00;;;18.10;48.80;;;;;;5056576;28;20175;-75
2023/05/23 06:09:13;;;;;;;53.17;48.57;;;18.10;48.70;;;;;;5056551;28;20263;-75
2023/05/23 06:11:39;;;;;;;53.60;48.97;;;18.10;48.70;;;;;;5074062;28;20171;-76
2023/05/23 06:14:06;;;;;;;53.30;48.93;;;18.10;48.80;;;;;;5074334;28;20199;-76
2023/05/23 06:16:31;;;;;;;54.20;49.60;;;18.10;49.00;;;;;;5074591;28;20405;-76
2023/05/23 06:18:57;;;;;;;53.87;49.20;;;18.10;48.70;;;;;;5073920;28;20960;-75
2023/05/23 06:21:22;;;;;;;52.30;48.10;;;18.10;48.70;;;;;;5073321;28;20572;-76
2023/05/23 06:23:48;;;;;;;52.07;47.80;;;18.10;48.70;;;;;;5070985;28;20255;-76
2023/05/23 06:26:14;;;;;;;52.70;48.30;;;18.10;48.80;;;;;;5074226;28;20199;-74
2023/05/23 06:28:39;;;;;;;53.53;49.13;;;18.20;48.80;;;;;;5073060;28;20175;-76
2023/05/23 06:31:05;;;;;;;53.60;49.20;;;18.20;48.80;;;;;;5056672;28;20186;-74
2023/05/23 06:33:31;;;;;;;53.13;48.50;;;18.20;48.50;;;;;;5073340;28;20194;-76
2023/05/23 06:35:57;;;;;;;54.20;49.70;;;18.20;48.40;;;;;;5078842;28;20211;-74
2023/05/23 06:38:22;;;;;;;52.03;47.87;;;18.20;48.20;;;;;;5085072;28;20401;-75
2023/05/23 06:40:48;;;;;;;52.90;48.60;;;18.20;48.00;;;;;;5083800;28;20175;-75
2023/05/23 06:43:13;;;;;;;51.97;47.77;;;18.20;48.20;;;;;;5084174;28;20179;-75
2023/05/23 06:45:39;;;;;;;51.33;47.20;;;18.20;48.40;;;;;;5083169;28;20211;-76
2023/05/23 06:48:05;;;;;;;53.00;48.43;;;18.20;48.50;;;;;;5084800;28;20227;-76
2023/05/23 06:50:30;;;;;;;50.50;46.30;;;18.10;48.70;;;;;;5084195;28;20229;-75
2023/05/23 06:52:56;;;;;;;50.73;46.63;;;18.10;48.40;;;;;;5061503;28;20401;-76
2023/05/23 06:55:22;;;;;;;48.23;44.40;;;18.10;48.30;;;;;;5074954;28;20229;-74
2023/05/23 06:57:50;;;;;;;50.47;46.13;;;18.10;47.90;;;;;;5074683;28;20171;-75
2023/05/23 07:00:17;;;;;;;48.97;45.07;;;18.10;48.00;;;;;;5074444;28;20470;-76
2023/05/23 07:02:44;;;;;;;48.93;45.03;;;18.10;47.70;;;;;;5071747;28;20465;-75
2023/05/23 07:05:10;;;;;;;50.10;45.93;;;18.10;47.60;;;;;;5073419;28;20541;-75
2023/05/23 07:07:35;;;;;;;49.90;46.00;;;18.00;47.70;;;;;;5057670;28;21082;-75
2023/05/23 07:10:01;;;;;;;47.97;44.07;;;18.00;47.20;;;;;;5092522;28;20179;-75
2023/05/23 07:12:26;;;;;;;49.23;45.33;;;18.00;47.10;;;;;;5094496;28;20183;-75
2023/05/23 07:14:52;;;;;;;49.33;45.27;;;17.90;47.10;;;;;;5095415;28;20190;-76
2023/05/23 07:17:17;;;;;;;44.80;41.33;;;17.90;47.20;;;;;;5097118;28;20189;-76
2023/05/23 07:19:44;;;;;;;44.00;40.37;;;17.90;46.60;;;;;;5096847;28;20196;-74
2023/05/23 07:22:10;;;;;;;42.77;39.47;;;17.80;46.40;;;;;;5077285;28;20197;-76
2023/05/23 07:24:36;;;;;;;43.17;39.97;;;17.80;45.80;;;;;;5096917;28;20432;-76
2023/05/23 07:27:01;;;;;;;41.07;37.97;;;17.80;45.60;;;;;;5095618;28;20578;-76
2023/05/23 07:29:27;;;;;;;41.60;38.27;;;17.70;45.10;;;;;;5097414;28;20175;-76
2023/05/23 07:31:52;;;;;;;41.57;38.33;;;17.70;45.50;;;;;;5106742;28;20257;-75
2023/05/23 07:34:18;;;;;;;39.20;36.10;;;17.70;45.00;;;;;;5110288;28;20233;-75
2023/05/23 07:36:43;;;;;;;42.33;39.03;;;17.70;44.90;;;;;;5109964;28;20179;-74
2023/05/23 07:39:09;;;;;;;43.13;39.70;;;17.60;45.00;;;;;;5110029;28;20542;-75
2023/05/23 07:41:35;;;;;;;41.53;38.30;;;17.60;45.10;;;;;;5091782;28;20170;-74
2023/05/23 07:44:00;;;;;;;42.17;39.07;;;17.70;45.10;;;;;;5111602;28;20206;-76
2023/05/23 07:46:26;;;;;;;46.53;42.67;;;17.70;45.50;;;;;;5110598;28;20220;-74
2023/05/23 07:48:51;;;;;;;47.67;43.87;;;17.70;45.70;;;;;;5107581;28;20266;-74
2023/05/23 07:51:20;;;;;;;43.93;40.27;;;17.70;45.40;;;;;;5087671;28;20261;-74
2023/05/23 07:53:45;;;;;;;42.13;38.63;;;17.70;44.40;;;;;;5076130;28;20244;-74
2023/05/23 07:56:11;;;;;;;41.40;38.30;;;17.60;43.40;;;;;;5075135;28;20440;-74
2023/05/23 07:58:36;;;;;;;38.67;35.77;;;17.60;42.70;;;;;;5091140;28;20409;-74
2023/05/23 08:01:02;;;;;;;35.10;32.33;;;17.50;42.10;;;;;;5091553;28;20183;-73
2023/05/23 08:03:28;;;;;;;35.43;33.07;;;17.50;41.80;;;;;;5091000;28;20219;-76
2023/05/23 08:05:53;;;;;;;35.57;32.87;;;17.50;41.30;;;;;;5075494;28;20265;-75
2023/05/23 08:08:19;;;;;;;36.13;33.40;;;17.50;41.20;;;;;;5093456;28;20190;-76
2023/05/23 08:10:45;;;;;;;35.00;32.47;;;17.50;41.70;;;;;;5072786;28;20667;-75
2023/05/23 08:13:11;;;;;;;35.63;32.90;;;17.50;41.00;;;;;;5092542;28;20190;-72
2023/05/23 08:15:37;;;;;;;38.23;35.30;;;17.50;41.50;;;;;;5074919;28;20922;-72
2023/05/23 08:18:03;;;;;;;35.77;32.97;;;17.50;41.20;;;;;;5089580;28;20179;-72
2023/05/23 08:20:30;;;;;;;36.00;33.23;;;17.50;41.20;;;;;;5073920;28;20629;-71
2023/05/23 08:23:00;;;;;;;36.53;33.73;;;17.60;40.80;;;;;;5090253;28;20412;-72
2023/05/23 08:25:29;;;;;;;34.17;31.73;;;17.50;40.90;;;;;;5072083;28;20515;-71
2023/05/23 08:27:57;;;;;;;33.93;31.43;;;17.50;40.40;;;;;;5081233;28;20422;-75
2023/05/23 08:30:24;;;;;;;35.57;32.80;;;17.50;40.40;;;;;;5069259;28;20467;-76
2023/05/23 08:32:50;;;;;;;35.03;32.53;;;17.40;40.00;;;;;;5070794;28;20406;-74
2023/05/23 08:35:16;;;;;;;35.50;32.90;;;17.40;39.90;;;;;;5071197;28;20931;-75
2023/05/23 08:37:41;;;;;;;33.63;31.27;;;17.40;40.00;;;;;;5073142;28;20516;-74
2023/05/23 08:40:17;;;;;;;31.23;29.07;;;17.40;40.10;;;;;;5069007;28;20172;-75
2023/05/23 08:42:42;;;;;;;33.87;31.47;;;17.40;39.80;;;;;;5068195;28;20201;-75
2023/05/23 08:45:08;;;;;;;31.90;29.60;;;17.40;39.70;;;;;;5070629;28;20433;-75
2023/05/23 08:47:41;;;;;;;29.97;27.77;;;17.40;39.20;;;;;;5068825;28;20256;-72
2023/05/23 08:50:09;;;;;;;31.33;28.90;;;17.40;39.50;;;;;;5071630;28;20433;-74
2023/05/23 08:52:40;;;;;;;28.57;26.57;;;17.30;39.20;;;;;;5069103;28;20401;-74
2023/05/23 08:55:07;;;;;;;31.27;29.17;;;17.30;39.60;;;;;;5071347;28;20842;-75
2023/05/23 08:57:34;;;;;;;31.20;29.10;;;17.30;39.10;;;;;;5071613;28;20513;-74
2023/05/23 09:00:03;;;;;;;33.10;30.70;;;17.30;39.00;;;;;;5054071;28;20444;-74
2023/05/23 09:02:31;;;;;;;32.63;30.20;;;17.30;39.00;;;;;;5068625;28;20426;-75
2023/05/23 09:04:56;;;;;;;30.90;28.80;;;17.30;39.20;;;;;;5070725;28;20935;-74
2023/05/23 09:07:22;;;;;;;33.87;31.17;;;17.30;39.20;;;;;;5068800;28;20434;-75
2023/05/23 09:09:47;;;;;;;35.20;32.67;;;17.40;39.20;;;;;;5069573;28;20229;-75
2023/05/23 09:12:13;;;;;;;32.50;30.10;;;17.40;39.30;;;;;;5069458;28;20641;-74
2023/05/23 09:14:40;;;;;;;31.47;29.10;;;17.30;39.30;;;;;;5071820;28;20420;-75
2023/05/23 09:17:05;;;;;;;31.87;29.63;;;17.40;39.20;;;;;;5074216;28;20645;-76
2023/05/23 09:19:32;;;;;;;30.90;28.73;;;17.40;38.70;;;;;;5075194;28;20462;-74
2023/05/23 09:21:57;;;;;;;29.50;27.33;;;17.40;38.50;;;;;;5054500;28;20167;-75
2023/05/23 09:24:23;;;;;;;28.90;26.80;;;17.30;38.40;;;;;;5074030;28;20437;-74
2023/05/23 09:26:48;;;;;;;28.93;26.57;;;17.40;38.00;;;;;;5073975;28;20661;-75
2023/05/23 09:29:19;;;;;;;28.80;26.30;;;17.30;38.00;;;;;;5073508;28;20180;-75
2023/05/23 09:31:45;;;;;;;27.50;25.50;;;17.30;37.90;;;;;;5072705;28;20194;-74
2023/05/23 09:34:10;;;;;;;28.73;26.83;;;17.30;37.90;;;;;;5074476;28;20468;-75
2023/05/23 09:36:40;;;;;;;28.50;26.47;;;17.30;37.90;;;;;;5074884;28;20167;-74
2023/05/23 09:39:06;;;;;;;27.70;25.80;;;17.30;37.90;;;;;;5073775;28;20660;-74
2023/05/23 09:41:34;;;;;;;29.00;26.90;;;17.30;37.90;;;;;;5073309;28;20451;-74
2023/05/23 09:44:04;;;;;;;26.47;24.47;;;17.30;37.40;;;;;;5073383;28;20962;-73
2023/05/23 09:46:30;;;;;;;27.67;25.67;;;17.40;37.70;;;;;;5073129;28;20405;-73
2023/05/23 09:48:56;;;;;;;25.67;23.87;;;17.30;37.50;;;;;;5073341;28;20907;-74
2023/05/23 09:51:22;;;;;;;27.13;24.93;;;17.40;37.40;;;;;;5055983;28;20179;-75
2023/05/23 09:53:49;;;;;;;26.53;24.80;;;17.50;37.20;;;;;;5074925;28;20199;-75
2023/05/23 09:56:17;;;;;;;26.07;24.40;;;17.50;37.10;;;;;;5074614;28;20409;-74
2023/05/23 09:58:49;;;;;;;25.37;23.67;;;17.50;37.00;;;;;;5074847;28;20501;-75
2023/05/23 10:01:16;;;;;;;25.63;23.73;;;17.50;36.80;;;;;;5074158;28;20437;-74
2023/05/23 10:03:47;;;;;;;26.53;24.90;;;17.50;36.80;;;;;;5075605;28;20785;-76
2023/05/23 10:06:39;;;;;;;24.90;23.10;;;17.50;36.70;;;;;;5075138;28;20562;-74
2023/05/23 10:09:07;;;;;;;24.73;23.10;;;17.60;36.10;;;;;;5056574;28;20436;-74
2023/05/23 10:11:32;;;;;;;24.43;22.93;;;17.70;35.70;;;;;;5072007;28;20764;-74
2023/05/23 10:14:01;;;;;;;23.30;21.90;;;17.70;35.40;;;;;;5074454;28;20461;-74
2023/05/23 10:16:35;;;;;;;24.00;22.50;;;17.70;35.70;;;;;;5073784;28;20167;-74
2023/05/23 10:19:09;;;;;;;22.80;21.23;;;17.80;35.30;;;;;;5075325;28;20755;-74
2023/05/23 10:21:41;;;;;;;22.50;20.90;;;17.90;35.00;;;;;;5056674;28;20496;-74
2023/05/23 10:24:07;;;;;;;21.60;20.30;;;18.00;34.10;;;;;;5074282;28;20520;-74
2023/05/23 10:26:32;;;;;;;22.43;20.93;;;18.20;33.10;;;;;;5074184;28;20445;-73
2023/05/23 10:29:00;;;;;;;21.93;20.50;;;18.30;32.20;;;;;;5075673;28;20185;-74
2023/05/23 10:31:26;;;;;;;22.20;20.80;;;18.40;31.70;;;;;;5075789;28;20659;-74
2023/05/23 10:33:59;;;;;;;20.93;19.63;;;18.40;31.00;;;;;;5075648;28;20795;-74
2023/05/23 10:36:39;;;;;;;21.70;20.30;;;18.40;31.10;;;;;;5075726;28;20400;-74
2023/05/23 10:39:10;;;;;;;20.60;19.37;;;18.40;30.80;;;;;;5076252;28;20477;-74
2023/05/23 10:41:50;;;;;;;21.47;20.27;;;18.50;31.00;;;;;;5078814;28;20401;-74
2023/05/23 10:44:29;;;;;;;19.57;18.43;;;18.50;31.20;;;;;;5077632;28;20421;-74
2023/05/23 10:47:02;;;;;;;20.60;19.33;;;18.50;31.50;;;;;;5076144;28;20488;-75
2023/05/23 10:49:42;;;;;;;20.90;19.50;;;18.40;31.50;;;;;;5058697;28;20414;-75
2023/05/23 10:52:10;;;;;;;19.60;18.50;;;18.50;31.70;;;;;;5073578;28;20441;-75
2023/05/23 10:54:48;;;;;;;18.40;17.30;;;18.40;31.80;;;;;;5075491;28;20532;-75
2023/05/23 10:57:19;;;;;;;20.10;18.87;;;18.40;32.10;;;;;;5074023;28;20381;-75
2023/05/23 10:59:46;;;;;;;21.63;20.23;;;18.40;32.20;;;;;;5074951;28;20406;-75
2023/05/23 11:02:14;;;;;;;20.00;18.80;;;18.40;32.00;;;;;;5074137;28;20433;-76
2023/05/23 11:04:41;;;;;;;20.70;19.50;;;18.40;31.90;;;;;;5075724;28;20429;-75
2023/05/23 11:07:30;;;;;;;21.70;20.30;;;18.50;31.80;;;;;;5055368;28;20429;-74
2023/05/23 11:10:10;;;;;;;21.57;20.37;;;18.50;30.50;;;;;;5052593;28;20782;-74
2023/05/23 11:12:41;;;;;;;20.63;19.53;;;18.40;30.40;;;;;;5052693;28;20812;-74
2023/05/23 11:15:27;;;;;;;19.47;18.47;;;18.50;30.00;;;;;;5035930;28;20519;-75
2023/05/23 11:17:55;;;;;;;20.90;19.70;;;18.50;29.90;;;;;;5064210;28;20456;-74
2023/05/23 11:20:25;;;;;;;20.50;19.40;;;18.50;29.10;;;;;;5072652;28;21002;-74
2023/05/23 11:22:57;;;;;;;19.37;18.33;;;18.50;29.00;;;;;;5070182;28;20437;-74
2023/05/23 11:25:42;;;;;;;20.47;19.27;;;18.40;29.40;;;;;;5071070;28;20881;-74
2023/05/23 11:28:11;;;;;;;18.17;17.17;;;18.50;28.30;;;;;;5072701;28;20398;-74
2023/05/23 11:30:38;;;;;;;20.27;18.97;;;18.50;28.20;;;;;;5073572;28;20417;-74
2023/05/23 11:33:12;;;;;;;20.40;19.10;;;18.50;28.40;;;;;;5072689;28;20401;-74
2023/05/23 11:35:44;;;;;;;18.40;17.00;;;18.60;28.70;;;;;;5055487;28;20429;-75
2023/05/23 11:38:10;;;;;;;19.23;18.03;;;18.60;28.70;;;;;;5074347;28;20493;-73
2023/05/23 11:40:40;;;;;;;19.60;18.40;;;18.60;29.00;;;;;;5072708;28;20556;-74
2023/05/23 11:43:11;;;;;;;22.20;20.90;;;18.70;29.10;;;;;;5072096;28;20178;-74
2023/05/23 11:45:37;;;;;;;20.93;19.57;;;18.60;29.00;;;;;;5055275;28;20520;-74
2023/05/23 11:48:11;;;;;;;20.37;19.27;;;18.60;29.00;;;;;;5056633;28;20564;-74
2023/05/23 11:50:51;;;;;;;20.47;19.27;;;18.60;28.50;;;;;;5057919;28;20453;-74
2023/05/23 11:53:20;;;;;;;21.00;19.70;;;18.60;28.90;;;;;;5056633;28;20457;-74
2023/05/23 11:55:58;;;;;;;21.63;20.20;;;18.60;29.00;;;;;;5073704;28;20486;-74
2023/05/23 11:58:43;;;;;;;21.17;19.87;;;18.70;28.40;;;;;;5073819;28;20413;-74
2023/05/23 12:01:11;;;;;;;22.63;21.23;;;18.70;27.60;;;;;;5055393;28;20804;-75
2023/05/23 12:03:47;;;;;;;20.30;19.10;;;18.70;26.90;;;;;;5073255;28;20502;-77
2023/05/23 12:06:17;;;;;;;20.10;18.90;;;18.70;27.00;;;;;;5073534;28;20405;-74
2023/05/23 12:08:43;;;;;;;19.27;18.07;;;18.70;27.60;;;;;;5073807;28;20406;-75
2023/05/23 12:11:10;;;;;;;19.43;18.30;;;18.70;27.70;;;;;;5072886;28;20424;-74
2023/05/23 12:13:36;;;;;;;19.10;18.00;;;18.80;27.60;;;;;;5055794;28;20211;-75
2023/05/23 12:16:03;;;;;;;18.67;17.67;;;18.80;27.90;;;;;;5073063;28;20959;-75
2023/05/23 12:18:30;;;;;;;17.03;16.17;;;18.80;28.10;;;;;;5071773;28;20163;-75
2023/05/23 12:21:06;;;;;;;18.10;17.10;;;18.80;27.10;;;;;;5072502;28;20410;-75
2023/05/23 12:23:32;;;;;;;17.17;16.20;;;18.90;26.50;;;;;;5070741;28;20417;-74
2023/05/23 12:25:58;;;;;;;16.67;15.77;;;18.90;26.70;;;;;;5065159;28;20467;-75
2023/05/23 12:28:37;;;;;;;16.73;15.83;;;19.00;26.50;;;;;;5070176;28;20421;-74
2023/05/23 12:31:20;;;;;;;18.37;17.37;;;19.10;26.30;;;;;;5070983;28;20171;-75